Terminal Aerodrome Forecast
Issued by NWS

Home | Current Version | Previous Version | Text Only | Print | Product List | Glossary On
Versions: 1 2 3 4 5 6 7 8 9 10 11 12 13 14 15 16 17 18 19 20
000
FTUS43 KFGF 290520
TAFBJI
TAF
KBJI 290520Z 2906/3006 23015G25KT P6SM SCT040
      TEMPO 2908/2912 BKN040
     FM291500 28020G30KT P6SM BKN040
     FM300100 28015KT P6SM SKC=

USA.gov is the U.S. government's official web portal to all federal, state and local government web resources and services.